createdAt,value
2023-05-22T00:01:56.695Z,35.03
2023-05-22T00:04:23.764Z,34.55
2023-05-22T00:06:50.830Z,32.60
2023-05-22T00:09:17.822Z,25.48
2023-05-22T00:11:44.955Z,32.13
2023-05-22T00:14:13.544Z,37.38
2023-05-22T00:16:41.256Z,38.58
2023-05-22T00:19:13.679Z,33.60
2023-05-22T00:21:41.042Z,38.28
2023-05-22T00:24:08.352Z,31.92
2023-05-22T00:26:35.602Z,41.35
2023-05-22T00:29:03.522Z,39.13
2023-05-22T00:31:30.545Z,37.80
2023-05-22T00:33:58.078Z,39.30
2023-05-22T00:36:25.119Z,31.40
2023-05-22T00:38:51.993Z,37.38
2023-05-22T00:41:19.382Z,38.10
2023-05-22T00:43:47.614Z,34.38
2023-05-22T00:46:15.207Z,36.45
2023-05-22T00:48:42.204Z,32.88
2023-05-22T00:51:09.356Z,32.15
2023-05-22T00:53:37.124Z,24.73
2023-05-22T00:56:05.056Z,33.10
2023-05-22T00:58:31.974Z,29.65
2023-05-22T01:00:59.509Z,35.35
2023-05-22T01:03:27.454Z,39.47
2023-05-22T01:05:55.925Z,35.13
2023-05-22T01:08:22.911Z,36.42
2023-05-22T01:11:04.329Z,28.02
2023-05-22T01:14:01.680Z,32.58
2023-05-22T01:16:50.811Z,36.00
2023-05-22T01:19:31.218Z,43.13
2023-05-22T01:22:21.693Z,31.65
2023-05-22T01:25:26.560Z,38.28
2023-05-22T01:28:08.851Z,29.38
2023-05-22T01:30:46.027Z,27.77
2023-05-22T01:33:17.225Z,34.65
2023-05-22T01:35:50.029Z,37.60
2023-05-22T01:38:17.297Z,37.67
2023-05-22T01:40:45.754Z,36.97
2023-05-22T01:43:14.729Z,34.33
2023-05-22T01:45:41.855Z,31.98
2023-05-22T01:48:09.035Z,36.90
2023-05-22T01:50:35.980Z,39.25
2023-05-22T01:53:16.848Z,34.55
2023-05-22T01:55:50.482Z,43.00
2023-05-22T01:58:23.627Z,47.85
2023-05-22T02:00:53.880Z,37.15
2023-05-22T02:03:25.630Z,35.65
2023-05-22T02:05:55.547Z,42.10
2023-05-22T02:08:23.038Z,48.78
2023-05-22T02:10:51.998Z,33.97
2023-05-22T02:13:21.911Z,36.40
2023-05-22T02:15:49.352Z,39.55
2023-05-22T02:18:16.418Z,38.72
2023-05-22T02:20:46.381Z,43.85
2023-05-22T02:23:13.786Z,36.97
2023-05-22T02:25:40.799Z,41.30
2023-05-22T02:28:07.698Z,38.72
2023-05-22T02:30:34.667Z,37.50
2023-05-22T02:33:05.641Z,38.60
2023-05-22T02:35:32.831Z,35.50
2023-05-22T02:37:59.719Z,31.73
2023-05-22T02:40:26.865Z,35.72
2023-05-22T02:42:53.744Z,37.50
2023-05-22T02:45:21.324Z,41.72
2023-05-22T02:47:48.327Z,31.38
2023-05-22T02:50:17.279Z,39.25
2023-05-22T02:52:45.280Z,41.80
2023-05-22T02:55:12.302Z,37.83
2023-05-22T02:57:39.259Z,40.60
2023-05-22T03:00:11.653Z,36.28
2023-05-22T03:02:39.129Z,35.30
2023-05-22T03:05:07.166Z,38.85
2023-05-22T03:07:34.830Z,33.80
2023-05-22T03:10:01.773Z,44.10
2023-05-22T03:12:28.770Z,36.92
2023-05-22T03:14:55.723Z,35.47
2023-05-22T03:17:22.928Z,36.50
2023-05-22T03:19:49.873Z,42.97
2023-05-22T03:22:18.465Z,37.65
2023-05-22T03:24:45.797Z,38.42
2023-05-22T03:27:17.135Z,40.83
2023-05-22T03:29:46.636Z,44.60
2023-05-22T03:32:13.643Z,38.05
2023-05-22T03:34:41.115Z,49.20
2023-05-22T03:37:10.566Z,50.42
2023-05-22T03:39:39.485Z,45.30
2023-05-22T03:42:17.469Z,49.58
2023-05-22T03:44:45.458Z,41.20
2023-05-22T03:47:12.347Z,42.60
2023-05-22T03:49:39.368Z,48.45
2023-05-22T03:52:06.413Z,48.92
2023-05-22T03:54:33.385Z,47.08
2023-05-22T03:57:00.749Z,43.00
2023-05-22T03:59:27.861Z,44.20
2023-05-22T04:01:58.019Z,57.88
2023-05-22T04:04:26.942Z,54.17
2023-05-22T04:06:54.003Z,42.35
2023-05-22T04:09:20.931Z,46.13
2023-05-22T04:11:48.744Z,50.00
2023-05-22T04:14:16.351Z,51.47
2023-05-22T04:16:43.188Z,45.33
2023-05-22T04:19:12.492Z,43.17
2023-05-22T04:21:39.677Z,44.47
2023-05-22T04:24:09.499Z,47.33
2023-05-22T04:26:37.300Z,43.83
2023-05-22T04:29:04.708Z,55.58
2023-05-22T04:31:32.530Z,54.95
2023-05-22T04:34:00.296Z,56.42
2023-05-22T04:36:27.965Z,48.35
2023-05-22T04:38:55.368Z,57.00
2023-05-22T04:41:26.465Z,55.05
2023-05-22T04:43:54.541Z,57.70
2023-05-22T04:46:21.686Z,51.22
2023-05-22T04:48:48.749Z,46.28
2023-05-22T04:51:16.180Z,53.05
2023-05-22T04:53:43.331Z,42.35
2023-05-22T04:56:11.809Z,49.88
2023-05-22T04:58:40.313Z,42.55
2023-05-22T05:01:07.399Z,40.72
2023-05-22T05:03:35.116Z,54.42
2023-05-22T05:06:02.109Z,47.67
2023-05-22T05:08:29.172Z,55.70
2023-05-22T05:10:56.322Z,46.22
2023-05-22T05:13:23.396Z,45.15
2023-05-22T05:15:50.661Z,41.58
2023-05-22T05:18:19.570Z,49.28
2023-05-22T05:20:46.603Z,40.78
2023-05-22T05:23:13.756Z,40.22
2023-05-22T05:25:40.789Z,35.67
2023-05-22T05:28:11.371Z,41.70
2023-05-22T05:30:40.670Z,40.53
2023-05-22T05:33:29.413Z,37.20
2023-05-22T05:36:06.679Z,41.25
2023-05-22T05:38:34.975Z,38.83
2023-05-22T05:41:02.405Z,41.42
2023-05-22T05:43:29.674Z,39.78
2023-05-22T05:46:02.568Z,37.05
2023-05-22T05:48:29.674Z,35.90
2023-05-22T05:50:57.599Z,31.92
2023-05-22T05:53:28.644Z,35.85
2023-05-22T05:55:58.656Z,38.40
2023-05-22T05:58:27.529Z,36.08
2023-05-22T06:01:20.216Z,37.97
2023-05-22T06:03:47.500Z,26.17
2023-05-22T06:06:20.912Z,30.20
2023-05-22T06:09:06.886Z,29.88
2023-05-22T06:11:46.821Z,34.15
2023-05-22T06:14:14.014Z,28.77
2023-05-22T06:16:41.612Z,37.85
2023-05-22T06:19:08.896Z,30.67
2023-05-22T06:21:36.602Z,35.63
2023-05-22T06:24:04.043Z,37.10
2023-05-22T06:26:31.274Z,32.40
2023-05-22T06:28:58.311Z,36.35
2023-05-22T06:31:26.046Z,35.50
2023-05-22T06:33:56.483Z,29.27
2023-05-22T06:36:24.961Z,27.10
2023-05-22T06:38:54.619Z,37.92
2023-05-22T06:41:47.954Z,29.08
2023-05-22T06:44:15.419Z,32.22
2023-05-22T06:46:42.390Z,36.33
2023-05-22T06:49:14.162Z,38.42
2023-05-22T06:51:46.589Z,27.42
2023-05-22T06:54:15.927Z,28.27
2023-05-22T06:56:46.062Z,27.52
2023-05-22T06:59:17.346Z,37.50
2023-05-22T07:02:13.363Z,33.88
2023-05-22T07:05:09.326Z,25.45
2023-05-22T07:07:49.760Z,28.05
2023-05-22T07:10:17.312Z,30.58
2023-05-22T07:12:44.276Z,32.47
2023-05-22T07:15:13.472Z,33.05
2023-05-22T07:17:46.539Z,23.50
2023-05-22T07:20:15.815Z,29.27
2023-05-22T07:22:47.916Z,23.55
2023-05-22T07:25:14.953Z,24.27
2023-05-22T07:27:42.303Z,31.60
2023-05-22T07:30:09.969Z,24.52
2023-05-22T07:32:38.028Z,31.60
2023-05-22T07:35:05.752Z,33.22
2023-05-22T07:37:33.932Z,30.92
2023-05-22T07:40:00.967Z,27.48
2023-05-22T07:42:29.221Z,31.25
2023-05-22T07:44:56.186Z,34.10
2023-05-22T07:47:23.700Z,24.95
2023-05-22T07:49:51.491Z,31.50
2023-05-22T07:52:19.818Z,35.35
2023-05-22T07:54:46.919Z,32.17
2023-05-22T07:57:16.564Z,28.98
2023-05-22T07:59:44.267Z,26.52
2023-05-22T08:02:11.323Z,26.27
2023-05-22T08:04:38.447Z,37.65
2023-05-22T08:07:05.814Z,33.33
2023-05-22T08:09:32.828Z,32.25
2023-05-22T08:11:59.789Z,33.85
2023-05-22T08:14:26.751Z,30.52
2023-05-22T08:16:53.753Z,27.83
2023-05-22T08:19:20.799Z,33.03
2023-05-22T08:21:47.960Z,30.00
2023-05-22T08:24:16.203Z,34.45
2023-05-22T08:26:43.679Z,29.65
2023-05-22T08:29:11.604Z,36.42
2023-05-22T08:31:38.484Z,26.65
2023-05-22T08:34:06.444Z,44.67
2023-05-22T08:36:36.078Z,42.67
2023-05-22T08:39:03.660Z,44.85
2023-05-22T08:41:30.655Z,39.65
2023-05-22T08:43:57.709Z,37.78
2023-05-22T08:46:29.193Z,40.63
2023-05-22T08:48:59.613Z,32.25
2023-05-22T08:51:33.024Z,31.13
2023-05-22T08:54:03.931Z,34.22
2023-05-22T08:56:32.140Z,27.08
2023-05-22T08:59:01.445Z,33.00
2023-05-22T09:01:29.878Z,31.83
2023-05-22T09:04:03.496Z,36.47
2023-05-22T09:06:30.668Z,36.95
2023-05-22T09:09:01.540Z,38.03
2023-05-22T09:11:28.549Z,33.58
2023-05-22T09:14:08.456Z,35.03
2023-05-22T09:16:48.204Z,33.75
2023-05-22T09:19:15.989Z,24.25
2023-05-22T09:21:44.482Z,28.08
2023-05-22T09:24:11.853Z,28.58
2023-05-22T09:26:39.508Z,33.55
2023-05-22T09:29:10.164Z,26.23
2023-05-22T09:31:44.814Z,32.35
2023-05-22T09:34:14.349Z,29.50
2023-05-22T09:36:42.575Z,26.30
2023-05-22T09:39:09.737Z,31.58
2023-05-22T09:41:38.827Z,32.83
2023-05-22T09:44:16.652Z,30.13
2023-05-22T09:46:47.455Z,30.98
2023-05-22T09:49:16.750Z,30.27
2023-05-22T09:51:48.030Z,40.17
2023-05-22T09:54:16.420Z,30.80
2023-05-22T09:56:44.721Z,32.75
2023-05-22T09:59:13.976Z,29.50
2023-05-22T10:01:42.540Z,23.08
2023-05-22T10:04:15.975Z,27.92
2023-05-22T10:06:47.293Z,26.38
2023-05-22T10:09:19.307Z,25.20
2023-05-22T10:11:47.518Z,25.17
2023-05-22T10:14:15.840Z,26.25
2023-05-22T10:16:45.087Z,29.63
2023-05-22T10:19:13.025Z,38.05
2023-05-22T10:21:42.099Z,30.38
2023-05-22T10:24:10.052Z,23.67
2023-05-22T10:26:38.658Z,27.20
2023-05-22T10:29:12.181Z,27.08
2023-05-22T10:31:54.605Z,26.35
2023-05-22T10:34:49.673Z,31.77
2023-05-22T10:37:25.675Z,25.77
2023-05-22T10:40:05.585Z,28.05
2023-05-22T10:42:32.900Z,22.30
2023-05-22T10:45:04.368Z,25.45
2023-05-22T10:47:34.020Z,37.58
2023-05-22T10:50:09.204Z,28.35
2023-05-22T10:52:36.933Z,32.05
2023-05-22T10:55:11.170Z,26.40
2023-05-22T10:57:40.027Z,29.05
2023-05-22T11:00:19.213Z,27.15
2023-05-22T11:02:50.210Z,24.60
2023-05-22T11:05:22.517Z,31.15
2023-05-22T11:07:49.505Z,32.83
2023-05-22T11:10:27.010Z,37.05
2023-05-22T11:13:11.150Z,26.27
2023-05-22T11:15:45.376Z,33.65
2023-05-22T11:18:14.317Z,31.08
2023-05-22T11:20:41.749Z,26.10
2023-05-22T11:23:10.836Z,22.90
2023-05-22T11:25:39.997Z,25.38
2023-05-22T11:28:07.812Z,37.65
2023-05-22T11:30:35.389Z,31.92
2023-05-22T11:33:02.743Z,24.13
2023-05-22T11:35:29.896Z,34.13
2023-05-22T11:37:57.107Z,32.15
2023-05-22T11:40:25.860Z,36.97
2023-05-22T11:42:54.034Z,34.47
2023-05-22T11:45:21.763Z,40.03
2023-05-22T11:47:49.689Z,38.40
2023-05-22T11:50:25.912Z,40.40
2023-05-22T11:53:02.877Z,30.67
2023-05-22T11:55:29.756Z,30.33
2023-05-22T11:57:56.806Z,27.75
2023-05-22T12:00:23.783Z,26.98
2023-05-22T12:02:51.003Z,30.70
2023-05-22T12:05:21.321Z,35.33
2023-05-22T12:07:48.271Z,35.38
2023-05-22T12:10:15.625Z,32.90
2023-05-22T12:12:43.751Z,35.15
2023-05-22T12:15:11.012Z,38.03
2023-05-22T12:17:38.524Z,33.28
2023-05-22T12:20:07.119Z,33.25
2023-05-22T12:22:34.039Z,36.78
2023-05-22T12:25:00.967Z,31.77
2023-05-22T12:27:34.487Z,27.45
2023-05-22T12:30:10.436Z,37.58
2023-05-22T12:32:37.459Z,35.30
2023-05-22T12:35:04.708Z,34.45
2023-05-22T12:37:33.768Z,33.45
2023-05-22T12:40:03.357Z,36.75
2023-05-22T12:42:30.357Z,31.85
2023-05-22T12:44:58.190Z,34.10
2023-05-22T12:47:26.154Z,39.95
2023-05-22T12:49:53.353Z,33.15
2023-05-22T12:52:20.330Z,39.17
2023-05-22T12:54:47.380Z,37.65
2023-05-22T12:57:14.412Z,42.55
2023-05-22T12:59:41.327Z,40.60
2023-05-22T13:02:08.423Z,50.90
2023-05-22T13:04:35.527Z,42.33
2023-05-22T13:07:02.705Z,47.63
2023-05-22T13:09:29.635Z,34.22
2023-05-22T13:11:56.935Z,39.78
2023-05-22T13:14:23.813Z,37.88
2023-05-22T13:16:50.806Z,42.67
2023-05-22T13:19:17.830Z,38.95
2023-05-22T13:21:44.837Z,52.88
2023-05-22T13:24:11.756Z,43.70
2023-05-22T13:26:38.696Z,52.72
2023-05-22T13:29:05.684Z,39.88
2023-05-22T13:31:37.992Z,51.17
2023-05-22T13:34:05.461Z,57.88
2023-05-22T13:36:33.032Z,47.92
2023-05-22T13:39:00.041Z,60.25
2023-05-22T13:41:27.006Z,54.90
2023-05-22T13:43:54.047Z,53.00
2023-05-22T13:46:22.370Z,58.00
2023-05-22T13:48:49.826Z,56.20
2023-05-22T13:51:17.083Z,56.65
2023-05-22T13:53:44.121Z,50.50
2023-05-22T13:56:10.988Z,58.35
2023-05-22T13:58:37.968Z,60.10
2023-05-22T14:01:05.021Z,64.32
2023-05-22T14:03:32.118Z,44.65
2023-05-22T14:05:59.074Z,45.60
2023-05-22T14:08:26.274Z,49.72
2023-05-22T14:10:53.325Z,52.28
2023-05-22T14:13:20.369Z,51.33
2023-05-22T14:15:47.380Z,57.65
2023-05-22T14:18:16.418Z,56.50
2023-05-22T14:20:44.031Z,56.30
2023-05-22T14:23:12.929Z,54.67
2023-05-22T14:25:42.934Z,45.10
2023-05-22T14:28:13.145Z,35.40
2023-05-22T14:30:40.588Z,42.70
2023-05-22T14:33:07.750Z,47.25
2023-05-22T14:35:34.764Z,45.05
2023-05-22T14:38:01.964Z,44.05
2023-05-22T14:40:28.936Z,43.20
2023-05-22T14:42:55.892Z,38.25
2023-05-22T14:45:22.851Z,41.53
2023-05-22T14:47:49.991Z,43.72
2023-05-22T14:50:19.650Z,39.40
2023-05-22T14:52:47.278Z,44.15
2023-05-22T14:55:14.407Z,38.35
2023-05-22T14:57:41.416Z,42.78
2023-05-22T15:00:09.918Z,43.15
2023-05-22T15:02:37.592Z,32.63
2023-05-22T15:05:05.564Z,37.38
2023-05-22T15:10:02.612Z,27.02
2023-05-22T15:12:29.666Z,33.25
2023-05-22T15:14:56.582Z,35.45
2023-05-22T15:17:23.439Z,41.72
2023-05-22T15:19:50.426Z,39.20
2023-05-22T15:22:19.840Z,38.85
2023-05-22T15:24:48.264Z,28.15
2023-05-22T15:27:17.326Z,33.35
2023-05-22T15:29:44.262Z,31.80
2023-05-22T15:32:11.196Z,41.67
2023-05-22T15:34:38.200Z,37.78
2023-05-22T15:37:05.160Z,34.90
2023-05-22T15:39:32.117Z,38.95
2023-05-22T15:42:06.485Z,42.55
2023-05-22T15:44:34.053Z,30.92
2023-05-22T15:47:00.944Z,32.97
2023-05-22T15:49:30.958Z,28.20
2023-05-22T15:51:58.726Z,34.25
2023-05-22T15:54:25.962Z,25.63
2023-05-22T15:56:53.158Z,43.38
2023-05-22T15:59:20.409Z,44.42
2023-05-22T16:01:47.681Z,30.23
2023-05-22T16:04:14.594Z,30.38
2023-05-22T16:06:41.773Z,31.73
2023-05-22T16:09:09.813Z,26.88
2023-05-22T16:11:37.913Z,26.75
2023-05-22T16:14:05.005Z,29.20
2023-05-22T16:16:32.095Z,31.08
2023-05-22T16:18:59.052Z,31.20
2023-05-22T16:21:26.050Z,24.63
2023-05-22T16:23:53.042Z,30.13
2023-05-22T16:26:20.032Z,27.38
2023-05-22T16:28:46.931Z,35.83
2023-05-22T16:31:19.108Z,27.02
2023-05-22T16:33:46.460Z,29.08
2023-05-22T16:36:13.480Z,25.75
2023-05-22T16:38:40.679Z,31.42
2023-05-22T16:41:07.568Z,28.17
2023-05-22T16:43:34.578Z,40.55
2023-05-22T16:46:01.480Z,38.85
2023-05-22T16:48:28.521Z,39.45
2023-05-22T16:50:55.464Z,32.55
2023-05-22T16:53:22.398Z,40.92
2023-05-22T16:55:49.252Z,38.28
2023-05-22T16:58:16.264Z,35.55
2023-05-22T17:00:43.611Z,37.63
2023-05-22T17:03:12.122Z,37.15
2023-05-22T17:05:39.691Z,41.05
2023-05-22T17:08:06.945Z,33.92
2023-05-22T17:10:33.807Z,26.42
2023-05-22T17:13:00.812Z,33.65
2023-05-22T17:15:27.751Z,32.50
2023-05-22T17:17:54.906Z,35.08
2023-05-22T17:20:24.910Z,35.05
2023-05-22T17:22:52.492Z,31.17
2023-05-22T17:25:19.491Z,29.85
2023-05-22T17:27:46.537Z,32.58
2023-05-22T17:30:13.568Z,38.17
2023-05-22T17:32:40.609Z,34.67
2023-05-22T17:35:07.842Z,35.85
2023-05-22T17:37:34.849Z,40.97
2023-05-22T17:40:01.725Z,33.70
2023-05-22T17:42:28.640Z,38.78
2023-05-22T17:44:55.488Z,34.72
2023-05-22T17:47:22.537Z,32.83
2023-05-22T17:49:49.460Z,42.58
2023-05-22T17:52:16.373Z,48.85
2023-05-22T17:54:43.212Z,37.40
2023-05-22T17:57:10.293Z,36.45
2023-05-22T17:59:39.873Z,32.65
2023-05-22T18:02:08.390Z,41.67
2023-05-22T18:04:36.282Z,29.38
2023-05-22T18:07:03.915Z,38.35
2023-05-22T18:09:30.778Z,37.53
2023-05-22T18:12:01.252Z,43.80
2023-05-22T18:14:28.203Z,36.72
2023-05-22T18:16:55.115Z,44.83
2023-05-22T18:19:22.066Z,34.83
2023-05-22T18:21:49.269Z,45.63
2023-05-22T18:24:16.212Z,42.90
2023-05-22T18:26:43.054Z,37.88
2023-05-22T18:29:10.577Z,40.92
2023-05-22T18:31:37.474Z,47.08
2023-05-22T18:34:04.483Z,41.60
2023-05-22T18:36:31.851Z,44.13
2023-05-22T18:38:58.782Z,38.85
2023-05-22T18:41:26.445Z,43.58
2023-05-22T18:43:53.571Z,46.10
2023-05-22T18:46:20.699Z,40.05
2023-05-22T18:48:47.744Z,44.40
2023-05-22T18:51:16.549Z,45.58
2023-05-22T18:53:43.481Z,45.40
2023-05-22T18:56:10.316Z,42.80
2023-05-22T18:58:41.428Z,48.08
2023-05-22T19:01:08.632Z,44.70
2023-05-22T19:03:35.784Z,49.85
2023-05-22T19:06:02.727Z,52.88
2023-05-22T19:08:31.103Z,50.22
2023-05-22T19:11:01.397Z,54.47
2023-05-22T19:13:29.468Z,42.17
2023-05-22T19:15:57.306Z,39.83
2023-05-22T19:18:24.712Z,42.13
2023-05-22T19:20:51.663Z,61.38
2023-05-22T19:23:18.773Z,39.90
2023-05-22T19:25:45.659Z,48.47
2023-05-22T19:28:12.663Z,43.90
2023-05-22T19:30:40.194Z,57.05
2023-05-22T19:33:09.067Z,49.38
2023-05-22T19:35:36.259Z,54.63
2023-05-22T19:38:03.519Z,42.42
2023-05-22T19:40:30.446Z,42.80
2023-05-22T19:42:57.928Z,50.38
2023-05-22T19:45:27.554Z,45.53
2023-05-22T19:47:55.675Z,46.47
2023-05-22T19:50:22.646Z,38.83
2023-05-22T19:52:49.529Z,43.20
2023-05-22T19:55:16.475Z,35.50
2023-05-22T19:57:44.863Z,43.85
2023-05-22T20:00:12.536Z,39.80
2023-05-22T20:02:42.369Z,47.85
2023-05-22T20:05:12.873Z,52.08
2023-05-22T20:07:40.359Z,40.97
2023-05-22T20:10:09.363Z,46.65
2023-05-22T20:12:37.327Z,51.10
2023-05-22T20:15:06.797Z,41.92
2023-05-22T20:17:34.295Z,38.40
2023-05-22T20:20:01.333Z,44.83
2023-05-22T20:22:28.459Z,40.65
2023-05-22T20:24:55.821Z,55.03
2023-05-22T20:27:22.914Z,45.28
2023-05-22T20:29:50.268Z,37.40
2023-05-22T20:32:17.416Z,44.53
2023-05-22T20:34:45.493Z,40.92
2023-05-22T20:37:13.667Z,39.33
2023-05-22T20:39:44.285Z,49.25
2023-05-22T20:42:13.049Z,43.85
2023-05-22T20:44:41.253Z,47.80
2023-05-22T20:47:09.491Z,44.72
2023-05-22T20:49:36.398Z,43.28
2023-05-22T20:52:04.756Z,40.30
2023-05-22T20:54:34.260Z,44.58
2023-05-22T20:57:02.217Z,39.70
2023-05-22T20:59:29.322Z,41.95
2023-05-22T21:01:57.062Z,42.40
2023-05-22T21:04:24.407Z,45.13
2023-05-22T21:06:51.524Z,46.42
2023-05-22T21:09:18.455Z,52.53
2023-05-22T21:11:45.624Z,40.72
2023-05-22T21:14:12.648Z,41.20
2023-05-22T21:16:40.267Z,39.95
2023-05-22T21:19:07.609Z,39.80
2023-05-22T21:21:36.291Z,46.72
2023-05-22T21:24:03.392Z,44.28
2023-05-22T21:26:30.385Z,41.08
2023-05-22T21:28:57.357Z,57.42
2023-05-22T21:31:24.398Z,42.13
2023-05-22T21:33:51.400Z,49.00
2023-05-22T21:36:18.352Z,57.38
2023-05-22T21:38:45.890Z,52.85
2023-05-22T21:41:13.286Z,54.92
2023-05-22T21:43:40.299Z,55.63
2023-05-22T21:46:07.313Z,60.75
2023-05-22T21:48:34.245Z,42.42
2023-05-22T21:51:01.183Z,62.05
2023-05-22T21:53:28.001Z,49.17
2023-05-22T21:55:54.874Z,74.75
2023-05-22T21:58:21.844Z,67.03
2023-05-22T22:00:48.770Z,60.38
2023-05-22T22:03:15.869Z,51.13
2023-05-22T22:05:42.821Z,57.72
2023-05-22T22:08:09.657Z,44.15
2023-05-22T22:10:36.988Z,51.90
2023-05-22T22:13:03.920Z,55.92
2023-05-22T22:15:32.088Z,57.92
2023-05-22T22:18:02.505Z,52.22
2023-05-22T22:20:44.464Z,64.68
2023-05-22T22:23:12.641Z,55.35
2023-05-22T22:25:39.684Z,52.50
2023-05-22T22:28:07.481Z,55.78
2023-05-22T22:30:35.313Z,58.15
2023-05-22T22:33:02.627Z,50.47
2023-05-22T22:35:29.784Z,52.53
2023-05-22T22:37:57.092Z,54.60
2023-05-22T22:40:25.997Z,59.25
2023-05-22T22:42:53.640Z,63.17
2023-05-22T22:45:20.693Z,67.50
2023-05-22T22:47:48.234Z,73.20
2023-05-22T22:50:15.116Z,49.72
2023-05-22T22:52:45.693Z,45.65
2023-05-22T22:55:13.492Z,58.78
2023-05-22T22:57:46.996Z,46.55
2023-05-22T23:00:14.526Z,59.83
2023-05-22T23:02:41.463Z,53.58
2023-05-22T23:05:09.013Z,35.03
2023-05-22T23:07:36.193Z,45.60
2023-05-22T23:10:03.223Z,39.38
2023-05-22T23:12:32.871Z,42.50
2023-05-22T23:14:59.880Z,42.20
2023-05-22T23:17:26.752Z,33.25
2023-05-22T23:19:53.922Z,36.60
2023-05-22T23:22:20.754Z,37.92
2023-05-22T23:24:47.684Z,40.50
2023-05-22T23:27:14.924Z,42.05
2023-05-22T23:29:41.842Z,32.03
2023-05-22T23:32:08.708Z,32.42
2023-05-22T23:34:35.880Z,41.80
2023-05-22T23:37:02.742Z,41.38
2023-05-22T23:39:29.623Z,46.35
2023-05-22T23:41:56.515Z,58.05
2023-05-22T23:44:23.464Z,50.40
2023-05-22T23:46:50.710Z,44.90
2023-05-22T23:49:17.659Z,45.88
2023-05-22T23:51:44.490Z,63.63
2023-05-22T23:54:13.134Z,58.55
2023-05-22T23:56:40.028Z,50.45
2023-05-22T23:59:06.926Z,44.38
